Details From LOWW - Wien Schwechat
To LOWS - Salzburg Maxglan
Flight Number -
Tags Decoded
Created
Modified
Stats Distance 159 nm / 295 km
Max Altitude 0 ft / 0 m
Waypoints 6
Social Downloads 7
Likes 0
Share VATSIM

Download

Looking for another format? Having issues loading an existing format? Contact us
Advertisement - Login to hide

Notes

Decoded

Route

LOWW SITNI BAGSI MATIG SBG LOWS

ID Type Via Altitude Latitude Longitude Leg Dist Tot Dist Heading (true) Name
O LOWW APT - 0 ft / 0 m 48.11978˚ 16.57818˚ - 0 nm - -
SITNI FIX - 0 ft / 0 m 48.05423˚ 14.83461˚ 70 nm 70 nm 267° / 266° -
BAGSI FIX - 0 ft / 0 m 48.05782˚ 14.28972˚ 21 nm 91 nm 271° / 270° -
MATIG FIX - 0 ft / 0 m 48.05859˚ 13.54149˚ 30 nm 121 nm 270° / 270° -
SBG NDB - 0 ft / 0 m 47.96753˚ 12.89408˚ 26 nm 148 nm 258° / 258° SALZBURG NDB
O LOWS APT - 0 ft / 0 m 47.80472˚ 12.99717˚ 10 nm 159 nm 157° / 157° -

Altitude Profile

Advertisement - Login to hide

LOWW

Details ICAO LOWW (VIE)
Name Wien Schwechat
Region Austria
Timezone Europe/Vienna (UTC+1.0)
Stats Elevation 600 ft / 183 m (AMSL)
Location 48.110068° 16.569637°
Runways 2
Magnetic Variation 4.258° E

METAR

LOWW 181820Z 33007KT 9999 FEW034 BKN038 00/M03 Q1027 NOSIG

Decode

TAF

TAF LOWW 181715Z 1818/1924 30006KT 9999 SCT030 TX02/1913Z TNM04/1907Z TEMPO 1818/1924 31010KT BKN030

Decode

Departure Runways

ID Width Length Bearing (true) Bearing (mag) Surface Threshold Offset Overrun Length
11 148 ft / 45 m 11,457 ft / 3,492 m 115.99° 111.73° Asphalt 0 ft / 0 m 0 ft / 0 m
16 148 ft / 45 m 11,811 ft / 3,600 m 164.23° 159.97° Asphalt 0 ft / 0 m 33 ft / 10 m
29 148 ft / 45 m 11,457 ft / 3,492 m 296.03° 291.77° Asphalt 0 ft / 0 m 0 ft / 0 m
34 148 ft / 45 m 11,811 ft / 3,600 m 344.24° 339.98° Asphalt 0 ft / 0 m 0 ft / 0 m

LOWS

Details ICAO LOWS (SZG)
Name Salzburg Maxglan
Region Austria
Timezone Europe/Vienna (UTC+1.0)
Stats Elevation 1,411 ft / 430 m (AMSL)
Location 47.793333° 13.004333°
Runways 1
Magnetic Variation 3.429° E

METAR

LOWS 181820Z 18002KT 9999 FEW050 BKN060 M01/M03 Q1025 R15/19//95 NOSIG

Decode

TAF

TAF TAF LOWS 181715Z 1818/1918 15005KT 9999 FEW050 BKN060 TX02/1915Z TNM03/1906Z BECMG 1909/1911 32005KT TEMPO 1916/1918 -SN

Decode

Destination Runways

ID Width Length Bearing (true) Bearing (mag) Surface Threshold Offset Overrun Length
16 148 ft / 45 m 9,024 ft / 2,751 m 157.08° 153.65° Concrete 656 ft / 200 m 0 ft / 0 m
34 148 ft / 45 m 9,024 ft / 2,751 m 337.09° 333.66° Concrete 787 ft / 240 m 0 ft / 0 m

Approach Navaids

Runway Type Ident Frequency Range Bearing (true) Bearing (mag) Slope Elevation
16 Localiser OES 109.90 MHz 18 nm / 33 km 157.53° 154.11° - 1,411 ft / 430 m (AMSL)
16 Glidescope OES 109.90 MHz 10 nm / 19 km 157.09° 153.66° 3.00° 1,446 ft / 441 m (AMSL)
16 DME OES 109.90 MHz 18 nm / 33 km - - - 1,446 ft / 441 m (AMSL)

Popular Alternatives